Terminal Aerodrome Forecast
Issued by NWS

Current Version | Previous Version | Text Only | Print | Product List | Glossary Off
Versions: 1 2 3 4 5 6 7 8 9 10 11 12 13 14 15 16 17 18 19 20 21 22 23 24 25 26 27 28 29

000
FTUS41 KRLX 181400 AAA
TAFCKB
TAF AMD
KCKB 181456Z 1815/1912 VRB04KT P6SM BKN035
     FM181900 12004KT 6SM -SHRA BR OVC035
     FM190000 00000KT P6SM BKN040
     FM190200 00000KT 4SM BR BKN030
     FM190500 00000KT 2SM BR BKN015=

USA.gov is the U.S. government's official web portal to all federal, state and local government web resources and services.